RJCW/WKJ METAR and TAF weather

Enter ICAO airport designator
Station Type Date Time Source
RJCW METAR 2023/02/04 01:00 UTC NOAA

RJCW 040100Z 22003KT 9999 FEW025 M09/M13 Q1015


Station Type Date Time Source
RJCW Decoded METAR 2023/02/04 01:00 UTC NOAA

Wakkanai Airport, Japan (RJCW) 45-24N 141-48E 11M
Feb 03, 2023 - 08:00 PM EST / 2023.02.04 0100 UTC
Wind: from the SW (220 degrees) at 3 MPH (3 KT):0
Visibility: greater than 7 mile(s):0
Sky conditions: mostly clear
Temperature: 15 F (-9 C)
Dew Point: 8 F (-13 C)
Relative Humidity: 72%
Pressure (altimeter): 29.97 in. Hg (1015 hPa)
ob: RJCW 040100Z 22003KT 9999 FEW025 M09/M13 Q1015
cycle: 1

Station Type Date Time Source
RJCW TAF UTC NOAA

Error!

Example: see airport list